sensor_id;sensor_type;location;lat;lon;timestamp;pressure;altitude;pressure_sealevel;temperature;humidity
50384;BME280;36301;48.310;12.786;2023-09-19T00:02:21;95929.25;;;14.63;100.00
50384;BME280;36301;48.310;12.786;2023-09-19T00:04:47;95928.50;;;14.66;100.00
50384;BME280;36301;48.310;12.786;2023-09-19T00:07:15;95946.00;;;14.63;100.00
50384;BME280;36301;48.310;12.786;2023-09-19T00:09:42;95923.19;;;14.59;100.00
50384;BME280;36301;48.310;12.786;2023-09-19T00:12:10;95922.78;;;14.64;100.00
50384;BME280;36301;48.310;12.786;2023-09-19T00:14:39;95939.09;;;14.73;100.00
50384;BME280;36301;48.310;12.786;2023-09-19T00:17:06;95938.34;;;14.69;100.00
50384;BME280;36301;48.310;12.786;2023-09-19T00:19:35;95940.59;;;14.74;100.00
50384;BME280;36301;48.310;12.786;2023-09-19T00:22:02;95939.16;;;14.66;100.00
50384;BME280;36301;48.310;12.786;2023-09-19T00:24:29;95933.03;;;14.69;100.00
50384;BME280;36301;48.310;12.786;2023-09-19T00:26:56;95925.13;;;14.54;100.00
50384;BME280;36301;48.310;12.786;2023-09-19T00:29:22;95929.69;;;14.54;100.00
50384;BME280;36301;48.310;12.786;2023-09-19T00:31:49;95938.81;;;14.60;100.00
50384;BME280;36301;48.310;12.786;2023-09-19T00:34:16;95932.00;;;14.56;100.00
50384;BME280;36301;48.310;12.786;2023-09-19T00:36:43;95924.38;;;14.54;100.00
50384;BME280;36301;48.310;12.786;2023-09-19T00:39:09;95920.97;;;14.53;100.00
50384;BME280;36301;48.310;12.786;2023-09-19T00:41:36;95928.50;;;14.62;100.00
50384;BME280;36301;48.310;12.786;2023-09-19T00:44:04;95929.69;;;14.54;100.00
50384;BME280;36301;48.310;12.786;2023-09-19T00:46:31;95915.69;;;14.50;100.00
50384;BME280;36301;48.310;12.786;2023-09-19T00:48:59;95928.59;;;14.51;100.00
50384;BME280;36301;48.310;12.786;2023-09-19T00:51:26;95943.78;;;14.54;100.00
50384;BME280;36301;48.310;12.786;2023-09-19T00:53:53;95935.84;;;14.51;100.00
50384;BME280;36301;48.310;12.786;2023-09-19T00:56:20;95950.66;;;14.56;100.00
50384;BME280;36301;48.310;12.786;2023-09-19T00:58:47;95943.84;;;14.47;100.00
50384;BME280;36301;48.310;12.786;2023-09-19T01:01:14;95946.88;;;14.42;100.00
50384;BME280;36301;48.310;12.786;2023-09-19T01:03:41;95961.34;;;14.48;100.00
50384;BME280;36301;48.310;12.786;2023-09-19T01:06:08;95939.25;;;14.44;100.00
50384;BME280;36301;48.310;12.786;2023-09-19T01:08:36;95955.63;;;14.46;100.00
50384;BME280;36301;48.310;12.786;2023-09-19T01:22:25;95964.38;;;14.50;100.00
50384;BME280;36301;48.310;12.786;2023-09-19T01:28:15;95958.28;;;14.46;100.00
50384;BME280;36301;48.310;12.786;2023-09-19T01:30:43;95960.19;;;14.42;100.00
50384;BME280;36301;48.310;12.786;2023-09-19T01:33:10;95965.88;;;14.55;100.00
50384;BME280;36301;48.310;12.786;2023-09-19T01:35:38;95966.66;;;14.52;100.00
50384;BME280;36301;48.310;12.786;2023-09-19T01:38:08;95964.72;;;14.52;100.00
50384;BME280;36301;48.310;12.786;2023-09-19T01:40:42;95978.06;;;14.52;100.00
50384;BME280;36301;48.310;12.786;2023-09-19T01:43:14;95973.88;;;14.55;100.00
50384;BME280;36301;48.310;12.786;2023-09-19T01:45:52;95968.16;;;14.53;100.00
50384;BME280;36301;48.310;12.786;2023-09-19T01:48:45;95970.81;;;14.53;100.00
50384;BME280;36301;48.310;12.786;2023-09-19T01:51:18;95965.16;;;14.47;100.00
50384;BME280;36301;48.310;12.786;2023-09-19T01:53:55;95968.16;;;14.53;100.00
50384;BME280;36301;48.310;12.786;2023-09-19T01:56:40;95957.53;;;14.42;100.00
50384;BME280;36301;48.310;12.786;2023-09-19T01:59:21;95971.63;;;14.50;100.00
50384;BME280;36301;48.310;12.786;2023-09-19T02:01:52;95959.03;;;14.47;100.00
50384;BME280;36301;48.310;12.786;2023-09-19T02:04:19;95967.41;;;14.52;100.00
50384;BME280;36301;48.310;12.786;2023-09-19T02:06:46;95967.41;;;14.52;100.00
50384;BME280;36301;48.310;12.786;2023-09-19T02:09:15;95973.50;;;14.49;100.00
50384;BME280;36301;48.310;12.786;2023-09-19T02:11:42;95971.22;;;14.51;100.00
50384;BME280;36301;48.310;12.786;2023-09-19T02:14:09;95971.97;;;14.56;100.00
50384;BME280;36301;48.310;12.786;2023-09-19T02:16:35;95975.72;;;14.58;100.00
50384;BME280;36301;48.310;12.786;2023-09-19T02:19:02;95966.22;;;14.61;100.00
50384;BME280;36301;48.310;12.786;2023-09-19T02:21:32;95975.72;;;14.62;100.00
50384;BME280;36301;48.310;12.786;2023-09-19T02:23:59;95962.78;;;14.60;100.00
50384;BME280;36301;48.310;12.786;2023-09-19T02:26:26;95954.84;;;14.49;100.00
50384;BME280;36301;48.310;12.786;2023-09-19T02:28:54;95968.56;;;14.51;100.00
50384;BME280;36301;48.310;12.786;2023-09-19T02:31:20;95963.97;;;14.52;100.00
50384;BME280;36301;48.310;12.786;2023-09-19T02:33:47;95962.44;;;14.54;100.00
50384;BME280;36301;48.310;12.786;2023-09-19T02:36:13;95978.38;;;14.62;100.00
50384;BME280;36301;48.310;12.786;2023-09-19T02:38:43;95965.47;;;14.57;100.00
50384;BME280;36301;48.310;12.786;2023-09-19T02:41:10;95987.13;;;14.62;100.00
50384;BME280;36301;48.310;12.786;2023-09-19T02:43:37;95985.97;;;14.63;100.00
50384;BME280;36301;48.310;12.786;2023-09-19T02:46:04;95985.94;;;14.70;100.00
50384;BME280;36301;48.310;12.786;2023-09-19T02:48:30;95978.00;;;14.60;100.00
50384;BME280;36301;48.310;12.786;2023-09-19T02:50:58;95990.91;;;14.65;100.00
50384;BME280;36301;48.310;12.786;2023-09-19T02:53:25;95986.78;;;14.57;100.00
50384;BME280;36301;48.310;12.786;2023-09-19T02:55:51;95992.06;;;14.64;100.00
50384;BME280;36301;48.310;12.786;2023-09-19T02:58:19;95984.16;;;14.49;100.00
50384;BME280;36301;48.310;12.786;2023-09-19T03:00:45;95995.88;;;14.63;100.00
50384;BME280;36301;48.310;12.786;2023-09-19T03:03:18;95991.31;;;14.63;100.00
50384;BME280;36301;48.310;12.786;2023-09-19T03:05:45;95996.22;;;14.65;100.00
50384;BME280;36301;48.310;12.786;2023-09-19T03:08:14;95986.38;;;14.58;100.00
50384;BME280;36301;48.310;12.786;2023-09-19T03:10:46;95992.09;;;14.60;100.00
50384;BME280;36301;48.310;12.786;2023-09-19T03:13:14;95997.78;;;14.62;100.00
50384;BME280;36301;48.310;12.786;2023-09-19T03:15:42;95996.28;;;14.61;100.00
50384;BME280;36301;48.310;12.786;2023-09-19T03:18:12;95995.53;;;14.61;100.00
50384;BME280;36301;48.310;12.786;2023-09-19T03:20:40;95990.97;;;14.58;100.00
50384;BME280;36301;48.310;12.786;2023-09-19T03:23:06;96000.84;;;14.61;100.00
50384;BME280;36301;48.310;12.786;2023-09-19T03:25:34;95990.19;;;14.61;100.00
50384;BME280;36301;48.310;12.786;2023-09-19T03:28:03;95998.13;;;14.68;100.00
50384;BME280;36301;48.310;12.786;2023-09-19T03:30:32;96000.03;;;14.67;100.00
50384;BME280;36301;48.310;12.786;2023-09-19T03:33:00;95959.09;;;14.36;100.00
50384;BME280;36301;48.310;12.786;2023-09-19T03:35:27;96002.38;;;14.58;100.00
50384;BME280;36301;48.310;12.786;2023-09-19T03:37:54;96001.97;;;14.60;100.00
50384;BME280;36301;48.310;12.786;2023-09-19T03:40:20;96007.69;;;14.65;100.00
50384;BME280;36301;48.310;12.786;2023-09-19T03:42:48;96002.34;;;14.65;100.00
50384;BME280;36301;48.310;12.786;2023-09-19T03:45:15;96011.09;;;14.66;100.00
50384;BME280;36301;48.310;12.786;2023-09-19T03:47:42;96011.84;;;14.66;100.00
50384;BME280;36301;48.310;12.786;2023-09-19T03:50:09;96005.03;;;14.62;100.00
50384;BME280;36301;48.310;12.786;2023-09-19T03:52:41;96009.19;;;14.66;100.00
50384;BME280;36301;48.310;12.786;2023-09-19T03:55:08;96015.28;;;14.67;100.00
50384;BME280;36301;48.310;12.786;2023-09-19T03:57:37;96014.50;;;14.66;100.00
50384;BME280;36301;48.310;12.786;2023-09-19T04:00:04;96004.97;;;14.69;100.00
50384;BME280;36301;48.310;12.786;2023-09-19T04:02:31;95992.47;;;14.59;100.00
50384;BME280;36301;48.310;12.786;2023-09-19T04:04:59;96016.75;;;14.71;100.00
50384;BME280;36301;48.310;12.786;2023-09-19T04:07:26;96020.19;;;14.72;100.00
50384;BME280;36301;48.310;12.786;2023-09-19T04:09:55;96023.63;;;14.69;100.00
50384;BME280;36301;48.310;12.786;2023-09-19T04:12:22;96028.94;;;14.69;100.00
50384;BME280;36301;48.310;12.786;2023-09-19T04:14:48;96014.13;;;14.68;100.00
50384;BME280;36301;48.310;12.786;2023-09-19T04:17:16;96028.13;;;14.79;100.00
50384;BME280;36301;48.310;12.786;2023-09-19T04:19:43;96033.50;;;14.72;100.00
50384;BME280;36301;48.310;12.786;2023-09-19T04:22:12;96028.19;;;14.72;100.00
50384;BME280;36301;48.310;12.786;2023-09-19T04:24:39;96031.25;;;14.70;100.00
50384;BME280;36301;48.310;12.786;2023-09-19T04:27:06;96038.09;;;14.68;100.00
50384;BME280;36301;48.310;12.786;2023-09-19T04:29:33;96041.13;;;14.70;100.00
50384;BME280;36301;48.310;12.786;2023-09-19T04:32:00;96039.19;;;14.74;100.00
50384;BME280;36301;48.310;12.786;2023-09-19T04:34:26;96043.00;;;14.73;100.00
50384;BME280;36301;48.310;12.786;2023-09-19T04:36:54;96040.34;;;14.73;100.00
50384;BME280;36301;48.310;12.786;2023-09-19T04:39:22;96040.00;;;14.71;100.00
50384;BME280;36301;48.310;12.786;2023-09-19T04:41:52;96048.00;;;14.67;100.00
50384;BME280;36301;48.310;12.786;2023-09-19T04:44:19;96054.09;;;14.64;100.00
50384;BME280;36301;48.310;12.786;2023-09-19T04:46:46;96055.63;;;14.65;100.00
50384;BME280;36301;48.310;12.786;2023-09-19T04:49:13;96057.91;;;14.67;100.00
50384;BME280;36301;48.310;12.786;2023-09-19T04:51:39;96062.47;;;14.66;100.00
50384;BME280;36301;48.310;12.786;2023-09-19T04:54:06;96050.31;;;14.65;100.00
50384;BME280;36301;48.310;12.786;2023-09-19T04:56:33;96068.56;;;14.67;100.00
50384;BME280;36301;48.310;12.786;2023-09-19T04:59:00;96081.47;;;14.72;100.00
50384;BME280;36301;48.310;12.786;2023-09-19T05:01:26;96076.16;;;14.72;100.00
50384;BME280;36301;48.310;12.786;2023-09-19T05:03:54;96074.97;;;14.76;100.00
50384;BME280;36301;48.310;12.786;2023-09-19T05:06:21;96073.84;;;14.74;100.00
50384;BME280;36301;48.310;12.786;2023-09-19T05:08:48;96063.22;;;14.67;100.00
50384;BME280;36301;48.310;12.786;2023-09-19T05:11:21;96081.88;;;14.70;100.00
50384;BME280;36301;48.310;12.786;2023-09-19T05:13:48;96083.00;;;14.73;100.00
50384;BME280;36301;48.310;12.786;2023-09-19T05:16:20;96085.66;;;14.69;100.00
50384;BME280;36301;48.310;12.786;2023-09-19T05:18:46;96067.06;;;14.59;100.00
50384;BME280;36301;48.310;12.786;2023-09-19T05:21:13;96077.38;;;14.60;100.00
50384;BME280;36301;48.310;12.786;2023-09-19T05:23:39;96073.94;;;14.56;100.00
50384;BME280;36301;48.310;12.786;2023-09-19T05:26:06;96081.53;;;14.58;100.00
50384;BME280;36301;48.310;12.786;2023-09-19T05:28:33;96075.06;;;14.59;100.00
50384;BME280;36301;48.310;12.786;2023-09-19T05:31:01;96084.22;;;14.58;100.00
50384;BME280;36301;48.310;12.786;2023-09-19T05:33:31;96064.44;;;14.51;100.00
50384;BME280;36301;48.310;12.786;2023-09-19T05:35:59;96088.31;;;14.69;100.00
50384;BME280;36301;48.310;12.786;2023-09-19T05:38:26;96093.59;;;14.84;100.00
50384;BME280;36301;48.310;12.786;2023-09-19T05:40:53;96101.16;;;14.96;100.00
50384;BME280;36301;48.310;12.786;2023-09-19T05:43:20;96089.69;;;15.02;100.00
50384;BME280;36301;48.310;12.786;2023-09-19T05:45:47;96091.84;;;15.18;100.00
50384;BME280;36301;48.310;12.786;2023-09-19T05:48:15;96101.25;;;15.37;100.00
50384;BME280;36301;48.310;12.786;2023-09-19T05:50:42;96105.34;;;15.49;100.00
50384;BME280;36301;48.310;12.786;2023-09-19T05:53:09;96107.69;;;15.43;100.00
50384;BME280;36301;48.310;12.786;2023-09-19T05:55:38;96108.31;;;15.62;100.00
50384;BME280;36301;48.310;12.786;2023-09-19T05:58:05;96108.25;;;15.72;100.00
50384;BME280;36301;48.310;12.786;2023-09-19T06:00:31;96117.44;;;15.68;100.00
50384;BME280;36301;48.310;12.786;2023-09-19T06:02:59;96112.00;;;15.75;100.00
50384;BME280;36301;48.310;12.786;2023-09-19T06:05:27;96125.78;;;15.70;100.00
50384;BME280;36301;48.310;12.786;2023-09-19T06:07:54;96115.91;;;15.67;100.00
50384;BME280;36301;48.310;12.786;2023-09-19T06:10:21;96111.66;;;15.73;100.00
50384;BME280;36301;48.310;12.786;2023-09-19T06:12:49;96112.72;;;15.82;100.00
50384;BME280;36301;48.310;12.786;2023-09-19T06:15:16;96112.28;;;15.88;100.00
50384;BME280;36301;48.310;12.786;2023-09-19T06:17:50;96130.78;;;16.05;100.00
50384;BME280;36301;48.310;12.786;2023-09-19T06:20:17;96120.19;;;15.98;100.00
50384;BME280;36301;48.310;12.786;2023-09-19T06:22:45;96132.31;;;16.06;100.00
50384;BME280;36301;48.310;12.786;2023-09-19T06:25:13;96133.03;;;16.11;100.00
50384;BME280;36301;48.310;12.786;2023-09-19T06:27:46;96141.16;;;16.00;100.00
50384;BME280;36301;48.310;12.786;2023-09-19T06:30:13;96138.59;;;15.89;100.00
50384;BME280;36301;48.310;12.786;2023-09-19T06:32:41;96143.00;;;16.06;100.00
50384;BME280;36301;48.310;12.786;2023-09-19T06:35:12;96144.00;;;16.20;100.00
50384;BME280;36301;48.310;12.786;2023-09-19T06:37:39;96135.03;;;16.37;100.00
50384;BME280;36301;48.310;12.786;2023-09-19T06:40:10;96144.34;;;16.25;100.00
50384;BME280;36301;48.310;12.786;2023-09-19T06:42:41;96156.94;;;16.25;100.00
50384;BME280;36301;48.310;12.786;2023-09-19T06:45:08;96153.09;;;16.26;100.00
50384;BME280;36301;48.310;12.786;2023-09-19T06:47:38;96141.13;;;16.03;100.00
50384;BME280;36301;48.310;12.786;2023-09-19T06:50:05;96160.94;;;16.06;100.00
50384;BME280;36301;48.310;12.786;2023-09-19T06:52:35;96164.31;;;16.10;100.00
50384;BME280;36301;48.310;12.786;2023-09-19T06:55:01;96163.50;;;16.17;100.00
50384;BME280;36301;48.310;12.786;2023-09-19T06:57:29;96157.16;;;16.03;100.00
50384;BME280;36301;48.310;12.786;2023-09-19T06:59:57;96163.75;;;16.33;100.00
50384;BME280;36301;48.310;12.786;2023-09-19T07:02:23;96164.94;;;17.51;100.00
50384;BME280;36301;48.310;12.786;2023-09-19T07:04:50;96171.72;;;17.32;100.00
50384;BME280;36301;48.310;12.786;2023-09-19T07:07:16;96175.84;;;17.09;100.00
50384;BME280;36301;48.310;12.786;2023-09-19T07:09:43;96165.34;;;18.43;100.00
50384;BME280;36301;48.310;12.786;2023-09-19T07:12:09;96176.31;;;18.72;100.00
50384;BME280;36301;48.310;12.786;2023-09-19T07:14:38;96178.75;;;18.00;100.00
50384;BME280;36301;48.310;12.786;2023-09-19T07:17:04;96171.25;;;17.64;100.00
50384;BME280;36301;48.310;12.786;2023-09-19T07:19:31;96175.25;;;17.52;100.00
50384;BME280;36301;48.310;12.786;2023-09-19T07:21:57;96174.16;;;17.50;100.00
50384;BME280;36301;48.310;12.786;2023-09-19T07:24:25;96168.84;;;17.46;100.00
50384;BME280;36301;48.310;12.786;2023-09-19T07:26:53;96163.28;;;17.60;100.00
50384;BME280;36301;48.310;12.786;2023-09-19T07:29:20;96186.03;;;17.72;100.00
50384;BME280;36301;48.310;12.786;2023-09-19T07:31:46;96187.34;;;17.87;100.00
50384;BME280;36301;48.310;12.786;2023-09-19T07:34:13;96192.44;;;18.05;100.00
50384;BME280;36301;48.310;12.786;2023-09-19T07:36:40;96177.72;;;18.13;100.00
50384;BME280;36301;48.310;12.786;2023-09-19T07:39:08;96195.16;;;18.25;100.00
50384;BME280;36301;48.310;12.786;2023-09-19T07:41:48;96194.31;;;18.28;100.00
50384;BME280;36301;48.310;12.786;2023-09-19T07:44:16;96209.16;;;18.56;100.00
50384;BME280;36301;48.310;12.786;2023-09-19T07:46:43;96206.25;;;18.67;100.00
50384;BME280;36301;48.310;12.786;2023-09-19T07:49:10;96211.06;;;18.56;100.00
50384;BME280;36301;48.310;12.786;2023-09-19T07:51:38;96215.63;;;18.79;100.00
50384;BME280;36301;48.310;12.786;2023-09-19T07:54:05;96213.88;;;18.92;100.00
50384;BME280;36301;48.310;12.786;2023-09-19T07:56:31;96228.50;;;19.07;100.00
50384;BME280;36301;48.310;12.786;2023-09-19T07:58:58;96226.63;;;19.60;100.00
50384;BME280;36301;48.310;12.786;2023-09-19T08:01:25;96226.88;;;21.18;88.80
50384;BME280;36301;48.310;12.786;2023-09-19T08:03:53;96228.00;;;21.97;85.72
50384;BME280;36301;48.310;12.786;2023-09-19T08:06:20;96214.09;;;22.12;78.38
50384;BME280;36301;48.310;12.786;2023-09-19T08:08:50;96227.34;;;22.19;78.87
50384;BME280;36301;48.310;12.786;2023-09-19T08:11:17;96232.34;;;22.42;78.31
50384;BME280;36301;48.310;12.786;2023-09-19T08:13:47;96233.28;;;23.05;72.51
50384;BME280;36301;48.310;12.786;2023-09-19T08:16:16;96225.47;;;22.85;73.94
50384;BME280;36301;48.310;12.786;2023-09-19T08:18:47;96236.22;;;23.51;72.64
50384;BME280;36301;48.310;12.786;2023-09-19T08:21:14;96236.00;;;22.70;69.89
50384;BME280;36301;48.310;12.786;2023-09-19T08:23:43;96240.81;;;23.10;69.50
50384;BME280;36301;48.310;12.786;2023-09-19T08:26:09;96245.25;;;22.25;74.84
50384;BME280;36301;48.310;12.786;2023-09-19T08:28:36;96241.97;;;23.31;72.24
50384;BME280;36301;48.310;12.786;2023-09-19T08:31:04;96248.72;;;22.83;69.65
50384;BME280;36301;48.310;12.786;2023-09-19T08:33:35;96240.47;;;22.30;71.31
50384;BME280;36301;48.310;12.786;2023-09-19T08:36:06;96247.31;;;22.56;70.65
50384;BME280;36301;48.310;12.786;2023-09-19T08:38:34;96245.88;;;22.64;66.83
50384;BME280;36301;48.310;12.786;2023-09-19T08:41:06;96251.19;;;22.20;70.48
50384;BME280;36301;48.310;12.786;2023-09-19T08:43:33;96245.66;;;22.59;69.70
50384;BME280;36301;48.310;12.786;2023-09-19T08:46:12;96243.63;;;23.60;65.95
50384;BME280;36301;48.310;12.786;2023-09-19T08:49:03;96246.81;;;23.36;66.34
50384;BME280;36301;48.310;12.786;2023-09-19T08:51:40;96256.38;;;23.06;67.16
50384;BME280;36301;48.310;12.786;2023-09-19T08:54:22;96255.28;;;21.87;73.03
50384;BME280;36301;48.310;12.786;2023-09-19T08:56:54;96262.69;;;21.03;75.13
50384;BME280;36301;48.310;12.786;2023-09-19T08:59:23;96257.59;;;20.63;78.71
50384;BME280;36301;48.310;12.786;2023-09-19T09:01:52;96259.31;;;19.75;83.66
50384;BME280;36301;48.310;12.786;2023-09-19T09:04:22;96264.66;;;19.39;86.20
50384;BME280;36301;48.310;12.786;2023-09-19T09:06:50;96261.44;;;19.28;88.80
50384;BME280;36301;48.310;12.786;2023-09-19T09:09:20;96248.06;;;19.44;90.18
50384;BME280;36301;48.310;12.786;2023-09-19T09:11:48;96264.78;;;20.04;87.89
50384;BME280;36301;48.310;12.786;2023-09-19T09:14:20;96256.88;;;19.81;82.95
50384;BME280;36301;48.310;12.786;2023-09-19T09:16:47;96252.44;;;19.74;83.52
50384;BME280;36301;48.310;12.786;2023-09-19T09:19:15;96266.13;;;20.29;81.26
50384;BME280;36301;48.310;12.786;2023-09-19T09:21:51;96250.97;;;22.15;74.85
50384;BME280;36301;48.310;12.786;2023-09-19T09:27:02;96262.22;;;23.26;66.06
50384;BME280;36301;48.310;12.786;2023-09-19T09:29:48;96246.88;;;22.58;65.55
50384;BME280;36301;48.310;12.786;2023-09-19T09:32:25;96244.69;;;23.62;64.42
50384;BME280;36301;48.310;12.786;2023-09-19T09:34:56;96249.75;;;22.98;67.57
50384;BME280;36301;48.310;12.786;2023-09-19T09:37:28;96246.31;;;22.63;70.27
50384;BME280;36301;48.310;12.786;2023-09-19T09:40:01;96253.19;;;22.98;67.68
50384;BME280;36301;48.310;12.786;2023-09-19T09:42:43;96252.91;;;22.01;71.40
50384;BME280;36301;48.310;12.786;2023-09-19T09:47:54;96246.16;;;21.17;75.59
50384;BME280;36301;48.310;12.786;2023-09-19T09:50:27;96253.41;;;20.91;78.54
50384;BME280;36301;48.310;12.786;2023-09-19T09:53:27;96254.69;;;20.41;79.70
50384;BME280;36301;48.310;12.786;2023-09-19T09:56:08;96263.94;;;20.24;82.44
50384;BME280;36301;48.310;12.786;2023-09-19T09:58:37;96261.78;;;20.02;83.73
50384;BME280;36301;48.310;12.786;2023-09-19T10:01:07;96255.59;;;19.69;86.93
50384;BME280;36301;48.310;12.786;2023-09-19T10:03:40;96259.66;;;19.77;85.88
50384;BME280;36301;48.310;12.786;2023-09-19T10:06:13;96256.69;;;19.72;85.91
50384;BME280;36301;48.310;12.786;2023-09-19T10:09:06;96266.69;;;19.71;88.63
50384;BME280;36301;48.310;12.786;2023-09-19T10:11:44;96263.75;;;19.65;89.44
50384;BME280;36301;48.310;12.786;2023-09-19T10:14:12;96259.13;;;19.46;91.49
50384;BME280;36301;48.310;12.786;2023-09-19T10:16:41;96258.41;;;19.98;85.20
50384;BME280;36301;48.310;12.786;2023-09-19T10:19:15;96253.34;;;21.07;82.62
50384;BME280;36301;48.310;12.786;2023-09-19T10:21:42;96260.06;;;21.28;82.28
50384;BME280;36301;48.310;12.786;2023-09-19T10:24:09;96267.34;;;21.69;78.94
50384;BME280;36301;48.310;12.786;2023-09-19T10:26:37;96255.81;;;21.43;75.67
50384;BME280;36301;48.310;12.786;2023-09-19T10:29:06;96259.25;;;21.31;78.71
50384;BME280;36301;48.310;12.786;2023-09-19T10:31:35;96248.59;;;21.40;73.90
50384;BME280;36301;48.310;12.786;2023-09-19T10:34:08;96256.53;;;20.89;77.24
50384;BME280;36301;48.310;12.786;2023-09-19T10:36:36;96260.91;;;20.54;80.63
50384;BME280;36301;48.310;12.786;2023-09-19T10:39:05;96266.44;;;20.92;78.25
50384;BME280;36301;48.310;12.786;2023-09-19T10:41:34;96258.19;;;21.12;76.88
50384;BME280;36301;48.310;12.786;2023-09-19T10:44:04;96254.44;;;21.22;77.22
50384;BME280;36301;48.310;12.786;2023-09-19T10:46:36;96245.78;;;21.44;75.47
50384;BME280;36301;48.310;12.786;2023-09-19T10:49:04;96239.13;;;21.36;71.99
50384;BME280;36301;48.310;12.786;2023-09-19T10:51:40;96246.78;;;21.50;71.98
50384;BME280;36301;48.310;12.786;2023-09-19T10:54:17;96241.81;;;21.61;73.66
50384;BME280;36301;48.310;12.786;2023-09-19T10:56:48;96237.06;;;21.40;75.82
50384;BME280;36301;48.310;12.786;2023-09-19T10:59:18;96243.31;;;21.37;74.55
50384;BME280;36301;48.310;12.786;2023-09-19T11:01:45;96246.38;;;21.22;74.84
50384;BME280;36301;48.310;12.786;2023-09-19T11:04:31;96246.19;;;20.88;79.29
50384;BME280;36301;48.310;12.786;2023-09-19T11:07:12;96254.59;;;20.90;75.81
50384;BME280;36301;48.310;12.786;2023-09-19T11:09:55;96250.91;;;21.25;74.70
50384;BME280;36301;48.310;12.786;2023-09-19T11:14:58;96236.03;;;21.21;72.02
50384;BME280;36301;48.310;12.786;2023-09-19T11:17:36;96229.84;;;20.95;70.88
50384;BME280;36301;48.310;12.786;2023-09-19T11:30:37;96218.28;;;22.25;66.67
50384;BME280;36301;48.310;12.786;2023-09-19T11:33:27;96219.53;;;22.34;63.50
50384;BME280;36301;48.310;12.786;2023-09-19T11:43:48;96222.63;;;21.46;67.56
50384;BME280;36301;48.310;12.786;2023-09-19T11:46:20;96229.44;;;21.51;70.57
50384;BME280;36301;48.310;12.786;2023-09-19T11:48:51;96244.44;;;20.36;80.06
50384;BME280;36301;48.310;12.786;2023-09-19T11:51:20;96252.59;;;20.00;86.74
50384;BME280;36301;48.310;12.786;2023-09-19T11:53:54;96265.56;;;19.32;91.96
50384;BME280;36301;48.310;12.786;2023-09-19T11:56:22;96274.53;;;18.86;96.54
50384;BME280;36301;48.310;12.786;2023-09-19T11:58:52;96266.31;;;18.50;99.56
50384;BME280;36301;48.310;12.786;2023-09-19T12:01:30;96272.78;;;18.29;100.00
50384;BME280;36301;48.310;12.786;2023-09-19T12:03:59;96264.47;;;18.00;100.00
50384;BME280;36301;48.310;12.786;2023-09-19T12:06:28;96276.69;;;18.01;100.00
50384;BME280;36301;48.310;12.786;2023-09-19T12:08:56;96268.47;;;17.88;100.00
50384;BME280;36301;48.310;12.786;2023-09-19T12:11:30;96285.06;;;18.03;100.00
50384;BME280;36301;48.310;12.786;2023-09-19T12:14:00;96283.69;;;17.95;100.00
50384;BME280;36301;48.310;12.786;2023-09-19T12:16:27;96267.53;;;17.98;100.00
50384;BME280;36301;48.310;12.786;2023-09-19T12:18:57;96276.41;;;18.19;100.00
50384;BME280;36301;48.310;12.786;2023-09-19T12:21:30;96270.47;;;18.07;100.00
50384;BME280;36301;48.310;12.786;2023-09-19T12:26:44;96254.25;;;17.91;100.00
50384;BME280;36301;48.310;12.786;2023-09-19T12:29:17;96249.38;;;18.09;100.00
50384;BME280;36301;48.310;12.786;2023-09-19T12:31:51;96265.81;;;18.35;100.00
50384;BME280;36301;48.310;12.786;2023-09-19T12:34:22;96262.00;;;18.99;100.00
50384;BME280;36301;48.310;12.786;2023-09-19T12:37:03;96258.22;;;19.16;100.00
50384;BME280;36301;48.310;12.786;2023-09-19T12:39:31;96266.16;;;19.40;100.00
50384;BME280;36301;48.310;12.786;2023-09-19T12:41:58;96265.09;;;19.74;100.00
50384;BME280;36301;48.310;12.786;2023-09-19T12:44:24;96270.91;;;19.52;96.09
50384;BME280;36301;48.310;12.786;2023-09-19T12:46:51;96275.09;;;19.53;95.50
50384;BME280;36301;48.310;12.786;2023-09-19T12:49:18;96261.06;;;19.65;95.14
50384;BME280;36301;48.310;12.786;2023-09-19T12:51:46;96256.06;;;20.00;95.98
50384;BME280;36301;48.310;12.786;2023-09-19T12:54:13;96259.06;;;19.69;95.28
50384;BME280;36301;48.310;12.786;2023-09-19T12:56:44;96256.13;;;19.96;95.08
50384;BME280;36301;48.310;12.786;2023-09-19T12:59:12;96260.06;;;20.25;93.38
50384;BME280;36301;48.310;12.786;2023-09-19T13:01:42;96252.44;;;20.23;90.08
50384;BME280;36301;48.310;12.786;2023-09-19T13:04:20;96255.22;;;20.03;88.49
50384;BME280;36301;48.310;12.786;2023-09-19T13:06:55;96251.75;;;19.86;89.09
50384;BME280;36301;48.310;12.786;2023-09-19T13:09:27;96254.44;;;19.86;87.90
50384;BME280;36301;48.310;12.786;2023-09-19T13:12:32;96256.03;;;20.16;89.08
50384;BME280;36301;48.310;12.786;2023-09-19T13:15:14;96243.88;;;19.95;85.40
50384;BME280;36301;48.310;12.786;2023-09-19T13:17:47;96246.81;;;20.34;87.06
50384;BME280;36301;48.310;12.786;2023-09-19T13:20:24;96253.53;;;20.26;83.23
50384;BME280;36301;48.310;12.786;2023-09-19T13:22:54;96257.03;;;20.55;85.46
50384;BME280;36301;48.310;12.786;2023-09-19T13:25:25;96244.41;;;20.68;84.18
50384;BME280;36301;48.310;12.786;2023-09-19T13:27:56;96240.69;;;20.79;84.59
50384;BME280;36301;48.310;12.786;2023-09-19T13:30:26;96242.19;;;20.80;82.42
50384;BME280;36301;48.310;12.786;2023-09-19T13:33:04;96238.53;;;20.86;79.65
50384;BME280;36301;48.310;12.786;2023-09-19T13:35:33;96242.94;;;20.80;83.47
50384;BME280;36301;48.310;12.786;2023-09-19T13:37:59;96231.69;;;20.24;79.10
50384;BME280;36301;48.310;12.786;2023-09-19T13:40:27;96236.31;;;20.23;80.64